Time;durP1;ratioP1;P1;durP2;ratioP2;P2;SDS_P1;SDS_P2;PMS_P1;PMS_P2;Temp;Humidity;BMP_temperature;BMP_pressure;BME280_temperature;BME280_humidity;BME280_pressure;Samples;Min_cycle;Max_cycle;Signal;HPM_P1;HPM_P2
2023/10/28 00:00:26;;;;;;;2.88;2.72;;;;;;;;;;1028708;28;20039;-72
2023/10/28 00:00:58;;;;;;;2.20;2.03;;;;;;;;;;1034089;28;20014;-72
2023/10/28 00:01:30;;;;;;;4.82;1.73;;;;;;;;;;1032873;28;20053;-72
2023/10/28 00:02:00;;;;;;;2.20;2.00;;;;;;;;;;1033408;28;20522;-72
2023/10/28 00:02:31;;;;;;;2.47;2.28;;;;;;;;;;1028604;28;20031;-72
2023/10/28 00:03:01;;;;;;;9.00;4.85;;;;;;;;;;1030191;28;20173;-72
2023/10/28 00:03:32;;;;;;;4.13;3.72;;;;;;;;;;1033073;28;20140;-72
2023/10/28 00:04:02;;;;;;;2.97;2.78;;;;;;;;;;1033250;28;20030;-72
2023/10/28 00:04:34;;;;;;;10.65;2.40;;;;;;;;;;1033354;28;20022;-72
2023/10/28 00:05:05;;;;;;;2.28;1.67;;;;;;;;;;1033450;28;20026;-72
2023/10/28 00:05:36;;;;;;;6.80;2.05;;;;;;;;;;1033275;28;20037;-72
2023/10/28 00:06:07;;;;;;;4.65;1.13;;;;;;;;;;1032639;28;20513;-72
2023/10/28 00:06:39;;;;;;;1.35;1.25;;;;;;;;;;1028692;28;20028;-72
2023/10/28 00:07:09;;;;;;;1.17;1.08;;;;;;;;;;1029767;28;20026;-72
2023/10/28 00:07:41;;;;;;;1.52;0.98;;;;;;;;;;1033009;28;20036;-72
2023/10/28 00:08:11;;;;;;;4.60;3.30;;;;;;;;;;1033169;28;20560;-72
2023/10/28 00:08:43;;;;;;;0.65;0.65;;;;;;;;;;1033086;28;20084;-72
2023/10/28 00:09:13;;;;;;;3.67;1.67;;;;;;;;;;1033367;28;20036;-72
2023/10/28 00:09:44;;;;;;;4.53;3.50;;;;;;;;;;1033538;28;20033;-72
2023/10/28 00:10:14;;;;;;;1.30;1.23;;;;;;;;;;1033338;28;20027;-72
2023/10/28 00:10:48;;;;;;;1.65;1.55;;;;;;;;;;1033298;28;20030;-72
2023/10/28 00:11:19;;;;;;;0.98;0.68;;;;;;;;;;1033383;28;20025;-72
2023/10/28 00:11:49;;;;;;;2.38;2.22;;;;;;;;;;1033491;28;20133;-72
2023/10/28 00:12:22;;;;;;;1.02;0.77;;;;;;;;;;1032617;28;20075;-72
2023/10/28 00:12:53;;;;;;;2.90;2.70;;;;;;;;;;1033468;28;20401;-72
2023/10/28 00:13:23;;;;;;;1.13;1.10;;;;;;;;;;1032929;28;20027;-72
2023/10/28 00:13:54;;;;;;;2.30;2.20;;;;;;;;;;1033394;28;20023;-72
2023/10/28 00:14:25;;;;;;;1.67;1.60;;;;;;;;;;1032797;28;20072;-72
2023/10/28 00:14:55;;;;;;;5.05;3.92;;;;;;;;;;1033134;28;20034;-72
2023/10/28 00:15:26;;;;;;;4.07;2.92;;;;;;;;;;1033359;28;20036;-72
2023/10/28 00:15:57;;;;;;;0.70;0.70;;;;;;;;;;1033461;28;20025;-72
2023/10/28 00:16:27;;;;;;;0.32;0.32;;;;;;;;;;1033320;28;20112;-72
2023/10/28 00:16:58;;;;;;;5.13;4.03;;;;;;;;;;1033493;28;20037;-72
2023/10/28 00:17:28;;;;;;;1.10;1.05;;;;;;;;;;1032912;28;20010;-72
2023/10/28 00:17:59;;;;;;;1.50;1.40;;;;;;;;;;1033604;28;20091;-72
2023/10/28 00:18:29;;;;;;;1.67;1.52;;;;;;;;;;1033009;28;20040;-72
2023/10/28 00:19:00;;;;;;;1.52;1.42;;;;;;;;;;1033489;28;20037;-72
2023/10/28 00:19:30;;;;;;;5.00;2.30;;;;;;;;;;1034111;28;20113;-72
2023/10/28 00:20:05;;;;;;;0.60;0.60;;;;;;;;;;1033827;28;20486;-72
2023/10/28 00:20:36;;;;;;;1.08;1.08;;;;;;;;;;1033651;28;20025;-72
2023/10/28 00:21:07;;;;;;;4.65;1.48;;;;;;;;;;1034980;28;20076;-72
2023/10/28 00:21:37;;;;;;;0.90;0.90;;;;;;;;;;1033800;28;20421;-72
2023/10/28 00:22:08;;;;;;;1.00;1.00;;;;;;;;;;1034280;28;20028;-72
2023/10/28 00:22:39;;;;;;;1.63;1.52;;;;;;;;;;1034211;28;20052;-72
2023/10/28 00:23:09;;;;;;;0.65;0.65;;;;;;;;;;1034200;28;20035;-72
2023/10/28 00:23:40;;;;;;;0.50;0.50;;;;;;;;;;1034065;28;20444;-72
2023/10/28 00:24:10;;;;;;;0.60;0.60;;;;;;;;;;1034423;28;20113;-74
2023/10/28 00:24:41;;;;;;;0.65;0.65;;;;;;;;;;1033692;28;20528;-73
2023/10/28 00:25:13;;;;;;;1.02;1.02;;;;;;;;;;1034320;28;20485;-73
2023/10/28 00:25:45;;;;;;;0.73;0.73;;;;;;;;;;1034127;28;21318;-73
2023/10/28 00:26:15;;;;;;;2.25;2.05;;;;;;;;;;1032756;28;20037;-73
2023/10/28 00:26:47;;;;;;;3.42;1.23;;;;;;;;;;1033890;28;20492;-73
2023/10/28 00:27:17;;;;;;;1.52;1.42;;;;;;;;;;1033699;28;20014;-73
2023/10/28 00:27:48;;;;;;;1.45;1.35;;;;;;;;;;1033134;28;20046;-73
2023/10/28 00:28:19;;;;;;;2.55;2.20;;;;;;;;;;1033730;28;20026;-73
2023/10/28 00:28:50;;;;;;;5.10;2.10;;;;;;;;;;1033331;28;20026;-73
2023/10/28 00:29:20;;;;;;;1.33;1.33;;;;;;;;;;1032399;28;20072;-73
2023/10/28 00:29:54;;;;;;;4.50;2.38;;;;;;;;;;1034063;28;20132;-73
2023/10/28 00:30:26;;;;;;;0.98;0.98;;;;;;;;;;1033840;28;20533;-73
2023/10/28 00:30:56;;;;;;;2.70;2.50;;;;;;;;;;1034052;28;20021;-73
2023/10/28 00:31:28;;;;;;;3.05;2.80;;;;;;;;;;1033975;28;20036;-73
2023/10/28 00:31:58;;;;;;;1.92;1.65;;;;;;;;;;1033295;28;20022;-73
2023/10/28 00:32:29;;;;;;;1.83;1.73;;;;;;;;;;1033717;28;20034;-73
2023/10/28 00:32:59;;;;;;;2.10;1.95;;;;;;;;;;1033984;28;20022;-73
2023/10/28 00:33:30;;;;;;;3.50;1.67;;;;;;;;;;1033997;28;20466;-73
2023/10/28 00:34:01;;;;;;;0.55;0.55;;;;;;;;;;1034284;28;20026;-73
2023/10/28 00:34:32;;;;;;;0.82;0.82;;;;;;;;;;1033921;28;20026;-73
2023/10/28 00:35:04;;;;;;;1.38;1.27;;;;;;;;;;1033706;28;20493;-73
2023/10/28 00:35:36;;;;;;;2.25;2.05;;;;;;;;;;1033555;28;20022;-73
2023/10/28 00:36:08;;;;;;;3.83;1.80;;;;;;;;;;1034065;28;20022;-73
2023/10/28 00:36:38;;;;;;;2.22;2.13;;;;;;;;;;1033306;28;20951;-73
2023/10/28 00:37:08;;;;;;;3.28;1.77;;;;;;;;;;1034125;28;20021;-73
2023/10/28 00:37:39;;;;;;;2.05;1.65;;;;;;;;;;1034321;28;20030;-73
2023/10/28 00:38:10;;;;;;;0.55;0.55;;;;;;;;;;1033742;28;20505;-73
2023/10/28 00:38:40;;;;;;;1.88;1.38;;;;;;;;;;1033507;28;20077;-73
2023/10/28 00:39:11;;;;;;;1.60;1.50;;;;;;;;;;1033807;28;20413;-73
2023/10/28 00:39:44;;;;;;;0.98;0.98;;;;;;;;;;1033880;28;20060;-73
2023/10/28 00:40:15;;;;;;;0.43;0.43;;;;;;;;;;1033049;28;20045;-73
2023/10/28 00:40:46;;;;;;;4.88;2.80;;;;;;;;;;1033823;28;20026;-73
2023/10/28 00:41:17;;;;;;;1.15;1.10;;;;;;;;;;1033445;28;20549;-73
2023/10/28 00:41:47;;;;;;;1.55;0.65;;;;;;;;;;1033818;28;20037;-73
2023/10/28 00:42:18;;;;;;;1.55;1.38;;;;;;;;;;1033512;28;20513;-73
2023/10/28 00:42:48;;;;;;;0.45;0.45;;;;;;;;;;1033619;28;20407;-73
2023/10/28 00:43:22;;;;;;;0.90;0.90;;;;;;;;;;1033852;28;20069;-73
2023/10/28 00:43:54;;;;;;;0.85;0.85;;;;;;;;;;1033837;28;20022;-73
2023/10/28 00:44:25;;;;;;;1.10;1.10;;;;;;;;;;1033266;28;20529;-73
2023/10/28 00:44:56;;;;;;;2.85;2.42;;;;;;;;;;1033741;28;20022;-73
2023/10/28 00:45:27;;;;;;;3.30;1.88;;;;;;;;;;1033744;28;20064;-73
2023/10/28 00:45:59;;;;;;;1.52;1.42;;;;;;;;;;1033816;28;20033;-73
2023/10/28 00:46:30;;;;;;;0.85;0.85;;;;;;;;;;1033906;28;20029;-73
2023/10/28 00:47:02;;;;;;;2.05;1.85;;;;;;;;;;1034000;28;20045;-73
2023/10/28 00:47:35;;;;;;;0.28;0.28;;;;;;;;;;1033844;28;20030;-73
2023/10/28 00:48:06;;;;;;;0.95;0.82;;;;;;;;;;1033678;28;20393;-73
2023/10/28 00:48:37;;;;;;;0.55;0.55;;;;;;;;;;1033656;28;20109;-73
2023/10/28 00:49:08;;;;;;;0.40;0.40;;;;;;;;;;1033660;28;20440;-73
2023/10/28 00:49:39;;;;;;;1.38;1.35;;;;;;;;;;1033638;28;20053;-73
2023/10/28 00:50:12;;;;;;;2.15;2.05;;;;;;;;;;1033591;28;20592;-73
2023/10/28 00:50:43;;;;;;;1.15;1.15;;;;;;;;;;1033576;28;20359;-73
2023/10/28 00:51:14;;;;;;;2.38;1.85;;;;;;;;;;1032306;28;20041;-73
2023/10/28 00:51:45;;;;;;;0.85;0.85;;;;;;;;;;1033642;28;20038;-73
2023/10/28 00:52:17;;;;;;;6.75;1.25;;;;;;;;;;1033264;28;20030;-73
2023/10/28 00:52:48;;;;;;;0.98;0.98;;;;;;;;;;1033249;28;21241;-73
2023/10/28 00:53:19;;;;;;;0.85;0.85;;;;;;;;;;1033820;28;20133;-73
2023/10/28 00:53:49;;;;;;;3.70;3.40;;;;;;;;;;1034115;28;20026;-73
2023/10/28 00:54:21;;;;;;;1.42;1.35;;;;;;;;;;1033885;28;20018;-73
2023/10/28 00:54:54;;;;;;;0.93;0.47;;;;;;;;;;1033100;28;20014;-73
2023/10/28 00:55:26;;;;;;;0.90;0.82;;;;;;;;;;1033703;28;20061;-73
2023/10/28 00:55:56;;;;;;;2.08;1.98;;;;;;;;;;1033548;28;20026;-73
2023/10/28 00:56:27;;;;;;;1.73;1.38;;;;;;;;;;1032719;28;20026;-73
2023/10/28 00:56:58;;;;;;;5.30;1.30;;;;;;;;;;1029678;28;20479;-73
2023/10/28 00:57:31;;;;;;;1.20;1.20;;;;;;;;;;1028820;28;20060;-73
2023/10/28 00:58:01;;;;;;;1.25;1.15;;;;;;;;;;1029715;28;20041;-73
2023/10/28 00:58:33;;;;;;;1.90;1.80;;;;;;;;;;1025763;28;20994;-73
2023/10/28 00:59:04;;;;;;;5.32;3.90;;;;;;;;;;1028992;28;20026;-73
2023/10/28 00:59:34;;;;;;;0.82;0.82;;;;;;;;;;1030389;28;20120;-73
2023/10/28 01:00:06;;;;;;;4.43;1.95;;;;;;;;;;1029495;28;20027;-73
2023/10/28 01:00:37;;;;;;;4.78;2.08;;;;;;;;;;1032795;28;20034;-73
2023/10/28 01:01:10;;;;;;;1.75;1.58;;;;;;;;;;1033627;28;20068;-73
2023/10/28 01:01:40;;;;;;;4.57;1.95;;;;;;;;;;1033554;28;20026;-73
2023/10/28 01:02:12;;;;;;;14.05;2.53;;;;;;;;;;1033793;28;20022;-73
2023/10/28 01:02:43;;;;;;;1.48;1.42;;;;;;;;;;1033611;28;20026;-73
2023/10/28 01:03:14;;;;;;;2.35;2.15;;;;;;;;;;1033797;28;20017;-73
2023/10/28 01:03:44;;;;;;;1.20;1.10;;;;;;;;;;1033902;28;20023;-73
2023/10/28 01:04:15;;;;;;;3.25;2.95;;;;;;;;;;1033534;28;20030;-73
2023/10/28 01:04:46;;;;;;;4.80;2.08;;;;;;;;;;1032875;28;20034;-73
2023/10/28 01:05:16;;;;;;;0.68;0.68;;;;;;;;;;1031349;28;20022;-73
2023/10/28 01:05:47;;;;;;;1.75;1.63;;;;;;;;;;1032722;28;20124;-73
2023/10/28 01:06:17;;;;;;;0.98;0.98;;;;;;;;;;1031269;28;20082;-73
2023/10/28 01:06:48;;;;;;;1.67;1.58;;;;;;;;;;1033650;28;20037;-73
2023/10/28 01:07:18;;;;;;;2.15;1.98;;;;;;;;;;1033265;28;20049;-73
2023/10/28 01:07:49;;;;;;;1.80;1.70;;;;;;;;;;1034219;28;20232;-73
2023/10/28 01:08:20;;;;;;;5.90;1.83;;;;;;;;;;1035069;28;20086;-73
2023/10/28 01:08:50;;;;;;;2.00;1.80;;;;;;;;;;1035085;28;20091;-73
2023/10/28 01:09:21;;;;;;;2.83;1.92;;;;;;;;;;1032340;28;20164;-73
2023/10/28 01:09:51;;;;;;;0.60;0.60;;;;;;;;;;1034396;28;20397;-73
2023/10/28 01:10:26;;;;;;;2.13;1.50;;;;;;;;;;1028167;28;20022;-73
2023/10/28 01:11:02;;;;;;;3.75;2.83;;;;;;;;;;1029438;28;20034;-73
2023/10/28 01:11:37;;;;;;;0.77;0.75;;;;;;;;;;1032513;28;20386;-73
2023/10/28 01:12:08;;;;;;;4.47;4.13;;;;;;;;;;1034168;28;20445;-73
2023/10/28 01:12:39;;;;;;;4.10;3.72;;;;;;;;;;1034138;28;20061;-73
2023/10/28 01:13:10;;;;;;;2.42;2.22;;;;;;;;;;1033208;28;20065;-73
2023/10/28 01:13:41;;;;;;;4.80;4.13;;;;;;;;;;1034245;28;20071;-73
2023/10/28 01:14:11;;;;;;;2.05;1.90;;;;;;;;;;1032703;28;20025;-73
2023/10/28 01:14:42;;;;;;;3.17;1.73;;;;;;;;;;1032903;28;20466;-73
2023/10/28 01:15:12;;;;;;;1.85;1.45;;;;;;;;;;1032413;28;20040;-73
2023/10/28 01:15:43;;;;;;;2.13;1.95;;;;;;;;;;1032671;28;20099;-73
2023/10/28 01:16:13;;;;;;;1.30;1.27;;;;;;;;;;1032403;28;20049;-73
2023/10/28 01:16:44;;;;;;;19.52;3.13;;;;;;;;;;1034027;28;20026;-73
2023/10/28 01:17:14;;;;;;;4.88;4.25;;;;;;;;;;1034656;28;20049;-73
2023/10/28 01:17:45;;;;;;;7.85;3.88;;;;;;;;;;1033238;28;20710;-73
2023/10/28 01:18:15;;;;;;;7.20;2.13;;;;;;;;;;1032407;28;20033;-73
2023/10/28 01:18:51;;;;;;;5.40;3.53;;;;;;;;;;1033545;28;20018;-73
2023/10/28 01:19:22;;;;;;;2.13;1.58;;;;;;;;;;1034236;28;20458;-73
2023/10/28 01:19:53;;;;;;;21.35;2.00;;;;;;;;;;1034326;28;20029;-73
2023/10/28 01:20:23;;;;;;;1.33;1.30;;;;;;;;;;1032597;28;20086;-73
2023/10/28 01:20:54;;;;;;;2.65;2.45;;;;;;;;;;1031304;28;20022;-73
2023/10/28 01:21:25;;;;;;;4.28;1.58;;;;;;;;;;1031941;28;20534;-73
2023/10/28 01:21:55;;;;;;;0.32;0.32;;;;;;;;;;1033082;28;20057;-73
2023/10/28 01:22:26;;;;;;;1.85;1.75;;;;;;;;;;1033017;28;20036;-73
2023/10/28 01:22:58;;;;;;;0.70;0.70;;;;;;;;;;1032751;28;20168;-73
2023/10/28 01:23:29;;;;;;;3.33;1.90;;;;;;;;;;1032331;28;20128;-73
2023/10/28 01:24:01;;;;;;;1.17;1.15;;;;;;;;;;1033681;28;20030;-73
2023/10/28 01:24:35;;;;;;;8.60;1.55;;;;;;;;;;1034221;28;20579;-73
2023/10/28 01:25:05;;;;;;;3.80;3.50;;;;;;;;;;1034181;28;20085;-73
2023/10/28 01:25:36;;;;;;;3.45;3.15;;;;;;;;;;1033762;28;20029;-73
2023/10/28 01:26:06;;;;;;;2.85;1.88;;;;;;;;;;1031719;28;20078;-74
2023/10/28 01:26:37;;;;;;;4.25;3.90;;;;;;;;;;1033465;28;20036;-73
2023/10/28 01:27:09;;;;;;;4.68;2.03;;;;;;;;;;1033519;28;20025;-72
2023/10/28 01:27:43;;;;;;;2.13;1.67;;;;;;;;;;1035094;28;20613;-74
2023/10/28 01:28:13;;;;;;;3.05;2.85;;;;;;;;;;1032504;28;20018;-73
2023/10/28 01:28:44;;;;;;;1.08;0.95;;;;;;;;;;1030045;28;20053;-73
2023/10/28 01:29:15;;;;;;;2.75;1.50;;;;;;;;;;1028049;28;20034;-73
2023/10/28 01:29:49;;;;;;;1.05;1.05;;;;;;;;;;1030410;28;20026;-75
2023/10/28 01:30:19;;;;;;;1.30;1.20;;;;;;;;;;1031804;28;20398;-74
2023/10/28 01:30:50;;;;;;;2.25;2.13;;;;;;;;;;1035024;28;20116;-74
2023/10/28 01:31:21;;;;;;;2.75;1.90;;;;;;;;;;1036270;28;20025;-73
2023/10/28 01:31:52;;;;;;;1.10;1.08;;;;;;;;;;1031104;28;20037;-75
2023/10/28 01:32:22;;;;;;;1.77;1.65;;;;;;;;;;1031959;28;20022;-74
2023/10/28 01:32:53;;;;;;;2.47;2.30;;;;;;;;;;1033642;28;20450;-73
2023/10/28 01:33:23;;;;;;;3.13;2.92;;;;;;;;;;1033739;28;20021;-73
2023/10/28 01:33:54;;;;;;;1.00;1.00;;;;;;;;;;1034411;28;20116;-74
2023/10/28 01:34:24;;;;;;;1.02;0.93;;;;;;;;;;1034338;28;20022;-73
2023/10/28 01:34:55;;;;;;;0.82;0.73;;;;;;;;;;1034044;28;20030;-73
2023/10/28 01:35:26;;;;;;;0.82;0.82;;;;;;;;;;1033350;28;20034;-73
2023/10/28 01:35:56;;;;;;;6.32;2.67;;;;;;;;;;1033349;28;20112;-73
2023/10/28 01:36:27;;;;;;;8.18;1.90;;;;;;;;;;1031805;28;20667;-73
2023/10/28 01:36:59;;;;;;;0.85;0.85;;;;;;;;;;1031424;28;20037;-73
2023/10/28 01:37:29;;;;;;;2.05;1.65;;;;;;;;;;1032305;28;20026;-73
2023/10/28 01:38:00;;;;;;;1.80;1.70;;;;;;;;;;1032001;28;20014;-73
2023/10/28 01:38:31;;;;;;;21.75;2.90;;;;;;;;;;1032569;28;20036;-73
2023/10/28 01:39:03;;;;;;;2.67;1.17;;;;;;;;;;1032866;28;20533;-73
2023/10/28 01:39:33;;;;;;;0.45;0.45;;;;;;;;;;1031206;28;20849;-73
2023/10/28 01:40:12;;;;;;;0.20;0.20;;;;;;;;;;1031867;28;20065;-74
2023/10/28 01:40:43;;;;;;;13.95;3.60;;;;;;;;;;1033381;28;20437;-73
2023/10/28 01:41:13;;;;;;;5.40;2.78;;;;;;;;;;1033407;28;20030;-73
2023/10/28 01:41:44;;;;;;;2.17;1.98;;;;;;;;;;1032462;28;20398;-74
2023/10/28 01:42:15;;;;;;;1.55;0.90;;;;;;;;;;1031679;28;20041;-74
2023/10/28 01:42:46;;;;;;;8.60;4.60;;;;;;;;;;1031146;28;20117;-73
2023/10/28 01:43:17;;;;;;;2.58;2.38;;;;;;;;;;1031782;28;20026;-74
2023/10/28 01:43:47;;;;;;;1.60;1.50;;;;;;;;;;1032544;28;20026;-74
2023/10/28 01:44:18;;;;;;;3.72;2.72;;;;;;;;;;1032459;28;20703;-74
2023/10/28 01:44:49;;;;;;;3.88;3.17;;;;;;;;;;1031828;28;20566;-74
2023/10/28 01:45:21;;;;;;;0.50;0.50;;;;;;;;;;1030668;28;20569;-74
2023/10/28 01:45:51;;;;;;;2.35;2.15;;;;;;;;;;1031257;28;20041;-74
2023/10/28 01:46:22;;;;;;;16.85;3.42;;;;;;;;;;1030970;28;20029;-74
2023/10/28 01:46:52;;;;;;;4.68;3.80;;;;;;;;;;1031400;28;20054;-74
2023/10/28 01:47:23;;;;;;;5.78;3.58;;;;;;;;;;1032092;28;20060;-74
2023/10/28 01:47:54;;;;;;;4.07;3.15;;;;;;;;;;1032869;28;20037;-73
2023/10/28 01:48:25;;;;;;;1.70;1.60;;;;;;;;;;1032558;28;20164;-73
2023/10/28 01:48:56;;;;;;;2.55;2.33;;;;;;;;;;1031686;28;20049;-73
2023/10/28 01:49:27;;;;;;;1.20;1.10;;;;;;;;;;1031521;28;20037;-74
2023/10/28 01:49:58;;;;;;;1.08;0.98;;;;;;;;;;1031974;28;21230;-73
2023/10/28 01:50:29;;;;;;;0.90;0.90;;;;;;;;;;1032997;28;20496;-73
2023/10/28 01:51:03;;;;;;;2.13;1.98;;;;;;;;;;1031891;28;20022;-73
2023/10/28 01:51:33;;;;;;;3.20;1.23;;;;;;;;;;1033037;28;20545;-73
2023/10/28 01:52:07;;;;;;;2.92;2.53;;;;;;;;;;1032892;28;20035;-74
2023/10/28 01:52:38;;;;;;;1.33;1.20;;;;;;;;;;1031213;28;20049;-74
2023/10/28 01:53:09;;;;;;;3.88;2.50;;;;;;;;;;1031208;28;20076;-74
2023/10/28 01:53:39;;;;;;;1.05;1.05;;;;;;;;;;1032723;28;20021;-74
2023/10/28 01:54:10;;;;;;;1.27;1.17;;;;;;;;;;1032819;28;20057;-73
2023/10/28 01:54:40;;;;;;;2.38;2.17;;;;;;;;;;1033674;28;20433;-73
2023/10/28 01:55:11;;;;;;;6.10;2.45;;;;;;;;;;1030319;28;20022;-74
2023/10/28 01:55:42;;;;;;;0.17;0.17;;;;;;;;;;1030917;28;20030;-74
2023/10/28 01:56:15;;;;;;;1.55;1.45;;;;;;;;;;1031783;28;20040;-74
2023/10/28 01:56:46;;;;;;;19.58;2.20;;;;;;;;;;1033320;28;20499;-74
2023/10/28 01:57:16;;;;;;;1.17;1.17;;;;;;;;;;1033004;28;20034;-74
2023/10/28 01:57:47;;;;;;;2.33;1.48;;;;;;;;;;1033870;28;20034;-74
2023/10/28 01:58:17;;;;;;;2.53;1.38;;;;;;;;;;1032799;28;20069;-74
2023/10/28 01:58:48;;;;;;;13.98;2.65;;;;;;;;;;1032906;28;20022;-74
2023/10/28 01:59:20;;;;;;;1.70;1.63;;;;;;;;;;1032096;28;20120;-73
2023/10/28 01:59:52;;;;;;;2.83;2.17;;;;;;;;;;1028243;28;20029;-74
2023/10/28 02:00:22;;;;;;;2.33;1.73;;;;;;;;;;1030631;28;20026;-74
2023/10/28 02:00:53;;;;;;;2.90;2.63;;;;;;;;;;1028269;28;20030;-74
2023/10/28 02:01:25;;;;;;;7.75;2.25;;;;;;;;;;1031446;28;20027;-73
2023/10/28 02:01:56;;;;;;;3.60;3.40;;;;;;;;;;1033093;28;20100;-74
2023/10/28 02:02:27;;;;;;;2.95;2.13;;;;;;;;;;1032254;28;20034;-74
2023/10/28 02:03:02;;;;;;;3.58;1.73;;;;;;;;;;1034960;28;20511;-74
2023/10/28 02:03:32;;;;;;;12.43;3.13;;;;;;;;;;1031991;28;20041;-74
2023/10/28 02:04:06;;;;;;;1.55;1.45;;;;;;;;;;1034012;28;20513;-74
2023/10/28 02:04:36;;;;;;;1.58;1.50;;;;;;;;;;1033382;28;20057;-74
2023/10/28 02:05:08;;;;;;;11.43;2.60;;;;;;;;;;1033006;28;20477;-74
2023/10/28 02:05:38;;;;;;;1.23;1.15;;;;;;;;;;1032251;28;20120;-74
2023/10/28 02:06:09;;;;;;;3.47;2.65;;;;;;;;;;1035634;28;20018;-74
2023/10/28 02:06:40;;;;;;;3.70;3.35;;;;;;;;;;1034207;28;20546;-74
2023/10/28 02:07:11;;;;;;;3.33;2.05;;;;;;;;;;1033752;28;20072;-74
2023/10/28 02:07:41;;;;;;;3.10;1.70;;;;;;;;;;1033061;28;20397;-74
2023/10/28 02:08:12;;;;;;;1.58;1.48;;;;;;;;;;1035431;28;20728;-74
2023/10/28 02:08:42;;;;;;;2.15;1.95;;;;;;;;;;1036294;28;20056;-74
2023/10/28 02:09:13;;;;;;;17.38;3.85;;;;;;;;;;1038026;28;20029;-74
2023/10/28 02:09:43;;;;;;;2.80;2.30;;;;;;;;;;1034329;28;20022;-75
2023/10/28 02:10:14;;;;;;;4.97;1.08;;;;;;;;;;1031657;28;20104;-74
2023/10/28 02:10:44;;;;;;;1.35;0.85;;;;;;;;;;1032168;28;20107;-75
2023/10/28 02:11:15;;;;;;;1.92;1.75;;;;;;;;;;1035192;28;20037;-74
2023/10/28 02:11:47;;;;;;;1.95;1.85;;;;;;;;;;1033527;28;20088;-75
2023/10/28 02:12:18;;;;;;;3.08;2.88;;;;;;;;;;1034273;28;20026;-75
2023/10/28 02:12:49;;;;;;;3.88;2.47;;;;;;;;;;1031748;28;20913;-74
2023/10/28 02:13:19;;;;;;;5.88;3.33;;;;;;;;;;1031508;28;20100;-75
2023/10/28 02:13:50;;;;;;;4.50;4.10;;;;;;;;;;1033860;28;20383;-74
2023/10/28 02:14:23;;;;;;;2.67;2.47;;;;;;;;;;1034135;28;20088;-74
2023/10/28 02:14:53;;;;;;;0.98;0.95;;;;;;;;;;1033652;28;20030;-74
2023/10/28 02:15:25;;;;;;;1.23;1.13;;;;;;;;;;1033468;28;20041;-74
2023/10/28 02:15:55;;;;;;;3.17;2.97;;;;;;;;;;1033546;28;20026;-74
2023/10/28 02:16:26;;;;;;;4.03;2.35;;;;;;;;;;1030705;28;20030;-74
2023/10/28 02:16:56;;;;;;;2.17;2.00;;;;;;;;;;1033212;28;20121;-74
2023/10/28 02:17:27;;;;;;;1.63;1.52;;;;;;;;;;1034428;28;20022;-74
2023/10/28 02:17:58;;;;;;;4.15;2.65;;;;;;;;;;1032492;28;20025;-75
2023/10/28 02:18:29;;;;;;;10.57;3.75;;;;;;;;;;1032483;28;20022;-75
2023/10/28 02:19:00;;;;;;;3.42;1.60;;;;;;;;;;1028507;28;20034;-73
2023/10/28 02:19:31;;;;;;;0.95;0.95;;;;;;;;;;1029556;28;20142;-75
2023/10/28 02:20:06;;;;;;;3.70;1.17;;;;;;;;;;1029581;28;20145;-74
2023/10/28 02:20:37;;;;;;;4.55;3.85;;;;;;;;;;1032350;28;20030;-74
2023/10/28 02:21:08;;;;;;;8.80;4.80;;;;;;;;;;1031737;28;20037;-74
2023/10/28 02:21:39;;;;;;;18.50;3.97;;;;;;;;;;1032261;28;20022;-74
2023/10/28 02:22:10;;;;;;;1.63;1.52;;;;;;;;;;1032861;28;20552;-74
2023/10/28 02:22:41;;;;;;;1.38;1.30;;;;;;;;;;1034146;28;20061;-74
2023/10/28 02:23:14;;;;;;;1.75;1.65;;;;;;;;;;1033355;28;20034;-74
2023/10/28 02:23:44;;;;;;;2.78;2.53;;;;;;;;;;1032812;28;20109;-74
2023/10/28 02:24:16;;;;;;;1.67;1.58;;;;;;;;;;1032072;28;20033;-74
2023/10/28 02:24:47;;;;;;;3.70;3.25;;;;;;;;;;1032006;28;20056;-74
2023/10/28 02:25:18;;;;;;;8.35;4.32;;;;;;;;;;1028846;28;20758;-75
2023/10/28 02:25:49;;;;;;;1.00;0.93;;;;;;;;;;1028298;28;20026;-75
2023/10/28 02:26:19;;;;;;;1.10;1.08;;;;;;;;;;1028621;28;20038;-75
2023/10/28 02:26:50;;;;;;;1.05;1.05;;;;;;;;;;1028971;28;20022;-75
2023/10/28 02:27:22;;;;;;;1.75;1.65;;;;;;;;;;1033685;28;20050;-74
2023/10/28 02:27:52;;;;;;;9.07;2.47;;;;;;;;;;1034623;28;20069;-74
2023/10/28 02:28:23;;;;;;;2.28;2.08;;;;;;;;;;1033867;28;20137;-75
2023/10/28 02:28:53;;;;;;;4.90;1.55;;;;;;;;;;1032943;28;20018;-74
2023/10/28 02:29:24;;;;;;;10.07;1.90;;;;;;;;;;1033516;28;20125;-74
2023/10/28 02:29:54;;;;;;;2.35;2.15;;;;;;;;;;1031088;28;20037;-74
2023/10/28 02:30:25;;;;;;;2.58;2.33;;;;;;;;;;1031578;28;20033;-74
2023/10/28 02:30:55;;;;;;;2.28;1.80;;;;;;;;;;1033133;28;20486;-74
2023/10/28 02:31:26;;;;;;;7.30;2.42;;;;;;;;;;1031387;28;20061;-74
2023/10/28 02:31:56;;;;;;;0.32;0.32;;;;;;;;;;1032160;28;20450;-74
2023/10/28 02:32:27;;;;;;;1.55;1.27;;;;;;;;;;1032388;28;20530;-74
2023/10/28 02:32:58;;;;;;;28.63;3.60;;;;;;;;;;1033001;28;20037;-74
2023/10/28 02:33:28;;;;;;;1.55;0.75;;;;;;;;;;1032258;28;21309;-74
2023/10/28 02:33:59;;;;;;;2.17;2.05;;;;;;;;;;1032115;28;20041;-74
2023/10/28 02:34:30;;;;;;;1.85;1.75;;;;;;;;;;1032010;28;20272;-74
2023/10/28 02:35:00;;;;;;;0.73;0.73;;;;;;;;;;1033575;28;20041;-74
2023/10/28 02:35:31;;;;;;;19.02;3.35;;;;;;;;;;1032585;28;20022;-74
2023/10/28 02:36:05;;;;;;;2.55;2.35;;;;;;;;;;1031557;28;20034;-74
2023/10/28 02:36:36;;;;;;;0.77;0.77;;;;;;;;;;1033372;28;20025;-74
2023/10/28 02:37:06;;;;;;;4.18;3.50;;;;;;;;;;1031582;28;20483;-74
2023/10/28 02:37:39;;;;;;;0.85;0.85;;;;;;;;;;1031772;28;20850;-74
2023/10/28 02:38:10;;;;;;;6.63;2.45;;;;;;;;;;1032927;28;20108;-74
2023/10/28 02:38:41;;;;;;;0.60;0.60;;;;;;;;;;1032025;28;20026;-74
2023/10/28 02:39:11;;;;;;;2.67;2.47;;;;;;;;;;1033094;28;21014;-74
2023/10/28 02:39:42;;;;;;;1.05;0.70;;;;;;;;;;1033943;28;20073;-74
2023/10/28 02:40:12;;;;;;;1.23;1.15;;;;;;;;;;1032177;28;20552;-74
2023/10/28 02:40:46;;;;;;;1.10;0.73;;;;;;;;;;1032694;28;20028;-74
2023/10/28 02:41:17;;;;;;;2.45;2.05;;;;;;;;;;1032244;28;20041;-74
2023/10/28 02:41:48;;;;;;;2.85;2.65;;;;;;;;;;1032455;28;20533;-74
2023/10/28 02:42:20;;;;;;;0.65;0.65;;;;;;;;;;1031940;28;20022;-74
2023/10/28 02:42:51;;;;;;;0.95;0.90;;;;;;;;;;1034108;28;20548;-74
2023/10/28 02:43:21;;;;;;;3.25;1.80;;;;;;;;;;1032632;28;20032;-74
2023/10/28 02:43:52;;;;;;;7.05;2.42;;;;;;;;;;1033232;28;20108;-73
2023/10/28 02:44:23;;;;;;;3.42;3.20;;;;;;;;;;1031555;28;20030;-74
2023/10/28 02:44:53;;;;;;;2.42;2.28;;;;;;;;;;1031375;28;20567;-73
2023/10/28 02:45:24;;;;;;;0.40;0.40;;;;;;;;;;1032637;28;20037;-73
2023/10/28 02:45:54;;;;;;;0.65;0.65;;;;;;;;;;1031112;28;20030;-72
2023/10/28 02:46:25;;;;;;;4.70;3.22;;;;;;;;;;1033694;28;20026;-72
2023/10/28 02:46:56;;;;;;;1.15;0.47;;;;;;;;;;1031719;28;20438;-74
2023/10/28 02:47:26;;;;;;;0.40;0.40;;;;;;;;;;1031702;28;20022;-73
2023/10/28 02:47:56;;;;;;;2.47;1.48;;;;;;;;;;1033283;28;20052;-73
2023/10/28 02:48:27;;;;;;;4.78;1.40;;;;;;;;;;1033760;28;20017;-73
2023/10/28 02:48:58;;;;;;;2.03;1.83;;;;;;;;;;1032660;28;20422;-73
2023/10/28 02:49:28;;;;;;;2.92;2.22;;;;;;;;;;1032188;28;20101;-72
2023/10/28 02:50:00;;;;;;;7.32;1.40;;;;;;;;;;1033193;28;20029;-72
2023/10/28 02:50:30;;;;;;;1.63;1.52;;;;;;;;;;1032412;28;20033;-73
2023/10/28 02:51:04;;;;;;;6.38;0.70;;;;;;;;;;1032570;28;20509;-73
2023/10/28 02:51:35;;;;;;;1.75;1.65;;;;;;;;;;1032051;28;20022;-73
2023/10/28 02:52:05;;;;;;;1.48;1.38;;;;;;;;;;1032902;28;20022;-73
2023/10/28 02:52:36;;;;;;;1.85;1.73;;;;;;;;;;1032689;28;20068;-73
2023/10/28 02:53:07;;;;;;;2.03;1.92;;;;;;;;;;1033949;28;20732;-73
2023/10/28 02:53:37;;;;;;;3.53;2.67;;;;;;;;;;1031133;28;20221;-73
2023/10/28 02:54:08;;;;;;;3.65;2.55;;;;;;;;;;1032423;28;20441;-73
2023/10/28 02:54:39;;;;;;;2.30;2.17;;;;;;;;;;1034852;28;20025;-73
2023/10/28 02:55:10;;;;;;;5.28;2.58;;;;;;;;;;1032411;28;20029;-74
2023/10/28 02:55:43;;;;;;;1.85;1.67;;;;;;;;;;1030572;28;20029;-74
2023/10/28 02:56:15;;;;;;;1.55;1.45;;;;;;;;;;1026061;28;20514;-74
2023/10/28 02:56:48;;;;;;;3.85;1.08;;;;;;;;;;1028841;28;20404;-74
2023/10/28 02:57:19;;;;;;;2.13;2.03;;;;;;;;;;1027147;28;20030;-74
2023/10/28 02:57:49;;;;;;;0.82;0.82;;;;;;;;;;1027970;28;20137;-75
2023/10/28 02:58:20;;;;;;;3.58;2.78;;;;;;;;;;1026959;28;20509;-75
2023/10/28 02:58:51;;;;;;;4.35;1.88;;;;;;;;;;1027293;28;20118;-74
2023/10/28 02:59:21;;;;;;;1.38;1.02;;;;;;;;;;1031002;28;20028;-74
2023/10/28 02:59:52;;;;;;;5.03;4.68;;;;;;;;;;1032735;28;20026;-74
2023/10/28 03:00:24;;;;;;;2.17;2.08;;;;;;;;;;1030843;28;20022;-74
2023/10/28 03:00:56;;;;;;;8.75;3.95;;;;;;;;;;1030664;28;20053;-74
2023/10/28 03:01:27;;;;;;;4.03;1.95;;;;;;;;;;1026514;28;20147;-74
2023/10/28 03:01:58;;;;;;;0.43;0.43;;;;;;;;;;1029858;28;20064;-74
2023/10/28 08:02:36;;;;;;;1.65;0.75;;;;;;;;;;1030626;28;20487;-72
2023/10/28 08:03:07;;;;;;;0.10;0.10;;;;;;;;;;1030480;28;20065;-72
2023/10/28 08:03:38;;;;;;;1.20;1.13;;;;;;;;;;1030294;28;20542;-71
2023/10/28 08:04:08;;;;;;;1.30;1.27;;;;;;;;;;1031242;28;20019;-72
2023/10/28 08:04:39;;;;;;;1.20;1.20;;;;;;;;;;1029396;28;20054;-71
2023/10/28 08:05:10;;;;;;;0.10;0.10;;;;;;;;;;1029910;28;20038;-72
2023/10/28 08:05:40;;;;;;;1.60;1.08;;;;;;;;;;1029885;28;20621;-72
2023/10/28 08:06:11;;;;;;;0.22;0.22;;;;;;;;;;1032117;28;20061;-73
2023/10/28 08:06:42;;;;;;;0.63;0.60;;;;;;;;;;1029512;28;20037;-72